createdAt,value
2018-11-04T00:00:28.746Z,1009.90
2018-11-04T00:01:28.771Z,1009.91
2018-11-04T00:02:28.727Z,1009.90
2018-11-04T00:03:28.714Z,1009.87
2018-11-04T00:04:28.702Z,1009.90
2018-11-04T00:05:28.692Z,1009.87
2018-11-04T00:06:28.715Z,1009.86
2018-11-04T00:07:28.670Z,1009.85
2018-11-04T00:08:28.663Z,1009.86
2018-11-04T00:09:28.649Z,1009.84
2018-11-04T00:10:28.639Z,1009.84
2018-11-04T00:11:28.628Z,1009.76
2018-11-04T00:12:28.635Z,1009.75
2018-11-04T00:13:28.608Z,1009.78
2018-11-04T00:14:28.598Z,1009.72
2018-11-04T00:15:28.585Z,1009.70
2018-11-04T00:16:28.606Z,1009.68
2018-11-04T00:17:28.563Z,1009.67
2018-11-04T00:18:28.552Z,1009.66
2018-11-04T00:19:28.542Z,1009.66
2018-11-04T00:20:28.532Z,1009.67
2018-11-04T00:21:28.519Z,1009.66
2018-11-04T00:22:28.525Z,1009.65
2018-11-04T00:23:28.501Z,1009.67
2018-11-04T00:24:28.488Z,1009.67
2018-11-04T00:25:28.480Z,1009.62
2018-11-04T00:26:28.480Z,1009.62
2018-11-04T00:27:28.456Z,1009.62
2018-11-04T00:28:28.459Z,1009.59
2018-11-04T00:29:28.439Z,1009.59
2018-11-04T00:30:28.424Z,1009.59
2018-11-04T00:31:28.416Z,1009.62
2018-11-04T00:32:28.404Z,1009.64
2018-11-04T00:33:28.432Z,1009.61
2018-11-04T00:34:28.380Z,1009.60
2018-11-04T00:35:28.378Z,1009.55
2018-11-04T00:36:28.362Z,1009.59
2018-11-04T00:37:28.350Z,1009.56
2018-11-04T00:38:28.338Z,1009.60
2018-11-04T00:39:28.370Z,1009.57
2018-11-04T00:40:28.317Z,1009.52
2018-11-04T00:41:28.306Z,1009.54
2018-11-04T00:42:28.295Z,1009.53
2018-11-04T00:43:28.284Z,1009.59
2018-11-04T00:44:28.272Z,1009.52
2018-11-04T00:45:28.397Z,1009.49
2018-11-04T00:46:28.251Z,1009.53
2018-11-04T00:47:28.241Z,1009.53
2018-11-04T00:48:28.279Z,1009.47
2018-11-04T00:49:28.233Z,1009.57
2018-11-04T00:50:28.209Z,1009.54
2018-11-04T00:51:28.197Z,1009.53
2018-11-04T00:52:28.187Z,1009.50
2018-11-04T00:53:28.194Z,1009.49
2018-11-04T00:54:28.164Z,1009.48
2018-11-04T00:55:28.155Z,1009.50
2018-11-04T00:56:28.144Z,1009.47
2018-11-04T00:57:28.169Z,1009.47
2018-11-04T00:58:28.128Z,1009.41
2018-11-04T00:59:28.111Z,1009.38
2018-11-04T01:00:28.105Z,1009.38
2018-11-04T01:01:28.092Z,1009.40
2018-11-04T01:02:28.080Z,1009.37
2018-11-04T01:03:28.078Z,1009.34
2018-11-04T01:04:28.071Z,1009.30
2018-11-04T01:05:28.046Z,1009.31
2018-11-04T01:06:28.036Z,1009.30
2018-11-04T01:07:28.027Z,1009.24
2018-11-04T01:08:28.014Z,1009.24
2018-11-04T01:09:28.024Z,1009.19
2018-11-04T01:10:27.992Z,1009.26
2018-11-04T01:11:27.983Z,1009.25
2018-11-04T01:12:27.976Z,1009.24
2018-11-04T01:13:27.973Z,1009.19
2018-11-04T01:14:27.950Z,1009.21
2018-11-04T01:15:27.939Z,1009.21
2018-11-04T01:16:27.945Z,1009.18
2018-11-04T01:17:27.918Z,1009.20
2018-11-04T01:18:27.909Z,1009.15
2018-11-04T01:19:27.896Z,1009.13
2018-11-04T01:20:27.886Z,1009.13
2018-11-04T01:21:27.888Z,1009.12
2018-11-04T01:22:27.864Z,1009.11
2018-11-04T01:23:27.857Z,1009.11
2018-11-04T01:24:27.954Z,1009.08
2018-11-04T01:25:27.850Z,1009.01
2018-11-04T01:26:27.820Z,1009.04
2018-11-04T01:27:27.811Z,1008.98
2018-11-04T01:28:27.799Z,1008.96
2018-11-04T01:29:27.791Z,1008.93
2018-11-04T01:30:27.929Z,1008.88
2018-11-04T01:31:27.772Z,1008.87
2018-11-04T01:32:27.755Z,1008.85
2018-11-04T01:33:27.745Z,1008.84
2018-11-04T01:34:27.734Z,1008.77
2018-11-04T01:35:27.800Z,1008.78
2018-11-04T01:36:27.728Z,1008.72
2018-11-04T01:37:27.702Z,1008.77
2018-11-04T01:38:27.704Z,1008.73
2018-11-04T01:39:27.681Z,1008.73
2018-11-04T01:40:27.671Z,1008.73
2018-11-04T01:41:27.705Z,1008.71
2018-11-04T01:42:27.650Z,1008.68
2018-11-04T01:43:27.639Z,1008.65
2018-11-04T01:44:27.628Z,1008.59
2018-11-04T01:45:27.617Z,1008.57
2018-11-04T01:46:27.608Z,1008.58
2018-11-04T01:47:27.610Z,1008.52
2018-11-04T01:48:27.584Z,1008.57
2018-11-04T01:49:27.574Z,1008.53
2018-11-04T01:50:27.563Z,1008.51
2018-11-04T01:51:27.590Z,1008.53
2018-11-04T01:52:27.543Z,1008.48
2018-11-04T01:53:27.532Z,1008.52
2018-11-04T01:54:27.520Z,1008.49
2018-11-04T01:55:27.511Z,1008.52
2018-11-04T01:56:27.499Z,1008.48
2018-11-04T01:57:27.528Z,1008.44
2018-11-04T01:58:27.477Z,1008.45
2018-11-04T01:59:27.467Z,1008.46
2018-11-04T02:00:27.457Z,1008.45
2018-11-04T02:01:27.446Z,1008.40
2018-11-04T02:02:27.435Z,1008.41
2018-11-04T02:03:27.440Z,1008.39
2018-11-04T02:04:27.413Z,1008.40
2018-11-04T02:05:27.401Z,1008.39
2018-11-04T02:06:27.398Z,1008.37
2018-11-04T02:07:27.383Z,1008.34
2018-11-04T02:08:27.384Z,1008.30
2018-11-04T02:09:27.364Z,1008.26
2018-11-04T02:10:27.349Z,1008.23
2018-11-04T02:11:27.339Z,1008.19
2018-11-04T02:12:27.327Z,1008.20
2018-11-04T02:13:27.331Z,1008.19
2018-11-04T02:14:27.312Z,1008.17
2018-11-04T02:15:27.297Z,1008.15
2018-11-04T02:16:27.285Z,1008.11
2018-11-04T02:17:27.276Z,1008.12
2018-11-04T02:18:27.278Z,1008.09
2018-11-04T02:19:27.253Z,1008.11
2018-11-04T02:20:27.243Z,1008.09
2018-11-04T02:21:27.236Z,1008.05
2018-11-04T02:22:27.222Z,1008.08
2018-11-04T02:23:27.224Z,1008.08
2018-11-04T02:24:27.199Z,1008.06
2018-11-04T02:25:27.200Z,1008.06
2018-11-04T02:26:27.179Z,1008.08
2018-11-04T02:27:27.168Z,1008.02
2018-11-04T02:28:27.159Z,1008.02
2018-11-04T02:29:27.159Z,1008.03
2018-11-04T02:30:27.977Z,1008.01
2018-11-04T02:31:27.125Z,1007.99
2018-11-04T02:32:27.114Z,1008.00
2018-11-04T02:33:27.104Z,1007.96
2018-11-04T02:34:27.105Z,1007.95
2018-11-04T02:35:27.085Z,1007.92
2018-11-04T02:36:27.071Z,1007.95
2018-11-04T02:37:27.061Z,1007.93
2018-11-04T02:38:27.053Z,1007.92
2018-11-04T02:39:27.057Z,1007.90
2018-11-04T02:40:27.043Z,1007.87
2018-11-04T02:41:27.017Z,1007.82
2018-11-04T02:42:27.007Z,1007.84
2018-11-04T02:43:26.997Z,1007.82
2018-11-04T02:44:26.995Z,1007.82
2018-11-04T02:45:26.990Z,1007.85
2018-11-04T02:46:26.965Z,1007.83
2018-11-04T02:47:26.956Z,1007.86
2018-11-04T02:48:26.948Z,1007.85
2018-11-04T02:49:26.933Z,1007.80
2018-11-04T02:50:26.941Z,1007.81
2018-11-04T02:51:26.912Z,1007.79
2018-11-04T02:52:26.900Z,1007.78
2018-11-04T02:53:26.891Z,1007.80
2018-11-04T02:54:26.880Z,1007.80
2018-11-04T02:55:26.883Z,1007.79
2018-11-04T02:56:26.858Z,1007.79
2018-11-04T02:57:26.848Z,1007.76
2018-11-04T02:58:26.837Z,1007.78
2018-11-04T02:59:26.830Z,1007.76
2018-11-04T03:00:26.827Z,1007.71
2018-11-04T03:01:26.820Z,1007.71
2018-11-04T03:02:26.794Z,1007.69
2018-11-04T03:03:26.789Z,1007.66
2018-11-04T03:04:26.771Z,1007.66
2018-11-04T03:05:26.761Z,1007.64
2018-11-04T03:06:26.792Z,1007.64
2018-11-04T03:07:26.740Z,1007.62
2018-11-04T03:08:26.731Z,1007.59
2018-11-04T03:09:26.719Z,1007.59
2018-11-04T03:10:26.710Z,1007.54
2018-11-04T03:11:26.697Z,1007.54
2018-11-04T03:12:26.702Z,1007.47
2018-11-04T03:13:26.676Z,1007.51
2018-11-04T03:14:26.685Z,1007.49
2018-11-04T03:15:26.672Z,1007.50
2018-11-04T03:16:26.644Z,1007.48
2018-11-04T03:17:26.633Z,1007.44
2018-11-04T03:18:26.633Z,1007.35
2018-11-04T03:19:26.612Z,1007.40
2018-11-04T03:20:26.601Z,1007.34
2018-11-04T03:21:26.591Z,1007.35
2018-11-04T03:22:26.595Z,1007.32
2018-11-04T03:23:26.568Z,1007.34
2018-11-04T03:24:26.604Z,1007.26
2018-11-04T03:25:26.547Z,1007.25
2018-11-04T03:26:26.542Z,1007.25
2018-11-04T03:27:26.566Z,1007.21
2018-11-04T03:28:26.517Z,1007.24
2018-11-04T03:29:26.505Z,1007.17
2018-11-04T03:30:26.495Z,1007.18
2018-11-04T03:31:26.483Z,1007.12
2018-11-04T03:32:26.473Z,1007.17
2018-11-04T03:33:26.476Z,1007.17
2018-11-04T03:34:26.463Z,1007.12
2018-11-04T03:35:26.440Z,1007.12
2018-11-04T03:36:26.429Z,1007.12
2018-11-04T03:37:26.419Z,1007.15
2018-11-04T03:38:26.489Z,1007.10
2018-11-04T03:39:26.400Z,1007.16
2018-11-04T03:40:26.400Z,1007.10
2018-11-04T03:41:26.376Z,1007.11
2018-11-04T03:42:26.365Z,1007.10
2018-11-04T03:43:26.370Z,1007.07
2018-11-04T03:44:26.344Z,1007.10
2018-11-04T03:45:26.351Z,1007.12
2018-11-04T03:46:26.324Z,1007.05
2018-11-04T03:47:26.311Z,1007.07
2018-11-04T03:48:26.304Z,1007.08
2018-11-04T03:49:26.308Z,1007.05
2018-11-04T03:50:26.280Z,1007.05
2018-11-04T03:51:26.303Z,1007.00
2018-11-04T03:52:26.257Z,1007.02
2018-11-04T03:53:26.248Z,1007.04
2018-11-04T03:54:26.236Z,1007.01
2018-11-04T03:55:26.226Z,1007.01
2018-11-04T03:56:26.215Z,1007.00
2018-11-04T03:57:26.222Z,1006.97
2018-11-04T03:58:26.194Z,1006.92
2018-11-04T03:59:26.197Z,1006.95
2018-11-04T04:00:26.172Z,1006.96
2018-11-04T04:01:26.163Z,1006.97
2018-11-04T04:02:26.169Z,1006.91
2018-11-04T04:03:26.140Z,1006.91
2018-11-04T04:04:26.129Z,1006.87
2018-11-04T04:05:26.121Z,1006.90
2018-11-04T04:06:26.108Z,1006.85
2018-11-04T04:07:26.117Z,1006.88
2018-11-04T04:08:26.087Z,1006.89
2018-11-04T04:09:26.075Z,1006.85
2018-11-04T04:10:26.093Z,1006.85
2018-11-04T04:11:26.057Z,1006.85
2018-11-04T04:12:26.045Z,1006.84
2018-11-04T04:13:26.033Z,1006.83
2018-11-04T04:14:26.024Z,1006.80
2018-11-04T04:15:26.012Z,1006.79
2018-11-04T04:16:26.016Z,1006.81
2018-11-04T04:17:25.994Z,1006.83
2018-11-04T04:18:25.979Z,1006.88
2018-11-04T04:19:25.969Z,1006.84
2018-11-04T04:20:25.983Z,1006.83
2018-11-04T04:21:25.950Z,1006.88
2018-11-04T04:22:25.936Z,1006.81
2018-11-04T04:23:25.925Z,1006.87
2018-11-04T04:24:25.914Z,1006.84
2018-11-04T04:25:25.905Z,1006.82
2018-11-04T04:26:25.907Z,1006.81
2018-11-04T04:27:25.883Z,1006.82
2018-11-04T04:28:25.886Z,1006.80
2018-11-04T04:29:25.861Z,1006.75
2018-11-04T04:30:25.852Z,1006.80
2018-11-04T04:31:25.853Z,1006.83
2018-11-04T04:32:25.829Z,1006.78
2018-11-04T04:33:25.825Z,1006.82
2018-11-04T04:34:25.806Z,1006.82
2018-11-04T04:35:25.802Z,1006.80
2018-11-04T04:36:25.801Z,1006.82
2018-11-04T04:37:25.777Z,1006.87
2018-11-04T04:38:25.766Z,1006.82
2018-11-04T04:39:25.760Z,1006.79
2018-11-04T04:40:25.744Z,1006.79
2018-11-04T04:41:25.747Z,1006.81
2018-11-04T04:42:25.722Z,1006.78
2018-11-04T04:43:25.712Z,1006.78
2018-11-04T04:44:25.707Z,1006.78
2018-11-04T04:45:25.690Z,1006.80
2018-11-04T04:46:25.711Z,1006.78
2018-11-04T04:47:25.668Z,1006.78
2018-11-04T04:48:25.657Z,1006.76
2018-11-04T04:49:25.647Z,1006.74
2018-11-04T04:50:25.636Z,1006.74
2018-11-04T04:51:25.626Z,1006.73
2018-11-04T04:52:25.629Z,1006.73
2018-11-04T04:53:25.606Z,1006.75
2018-11-04T04:54:25.592Z,1006.71
2018-11-04T04:55:25.583Z,1006.71
2018-11-04T04:56:25.573Z,1006.67
2018-11-04T04:57:25.575Z,1006.68
2018-11-04T04:58:25.550Z,1006.63
2018-11-04T04:59:25.541Z,1006.61
2018-11-04T05:00:25.529Z,1006.62
2018-11-04T05:01:25.518Z,1006.60
2018-11-04T05:02:25.523Z,1006.59
2018-11-04T05:03:25.497Z,1006.58
2018-11-04T05:04:25.485Z,1006.60
2018-11-04T05:05:25.475Z,1006.59
2018-11-04T05:06:25.464Z,1006.56
2018-11-04T05:07:25.487Z,1006.58
2018-11-04T05:08:25.446Z,1006.55
2018-11-04T05:09:25.433Z,1006.58
2018-11-04T05:10:25.421Z,1006.59
2018-11-04T05:11:25.409Z,1006.54
2018-11-04T05:12:25.401Z,1006.58
2018-11-04T05:13:25.404Z,1006.53
2018-11-04T05:14:25.380Z,1006.50
2018-11-04T05:15:25.368Z,1006.51
2018-11-04T05:16:25.356Z,1006.54
2018-11-04T05:17:25.346Z,1006.54
2018-11-04T05:18:25.362Z,1006.57
2018-11-04T05:19:25.324Z,1006.55
2018-11-04T05:20:25.314Z,1006.50
2018-11-04T05:21:25.304Z,1006.54
2018-11-04T05:22:25.293Z,1006.54
2018-11-04T05:23:25.281Z,1006.53
2018-11-04T05:24:25.282Z,1006.53
2018-11-04T05:25:25.260Z,1006.51
2018-11-04T05:26:25.251Z,1006.55
2018-11-04T05:27:25.239Z,1006.51
2018-11-04T05:28:25.229Z,1006.52
2018-11-04T05:29:25.235Z,1006.51
2018-11-04T05:30:25.208Z,1006.51
2018-11-04T05:31:25.209Z,1006.52
2018-11-04T05:32:25.189Z,1006.51
2018-11-04T05:33:25.175Z,1006.50
2018-11-04T05:34:25.173Z,1006.41
2018-11-04T05:35:25.165Z,1006.40
2018-11-04T05:36:25.142Z,1006.40
2018-11-04T05:37:25.133Z,1006.44
2018-11-04T05:38:25.126Z,1006.45
2018-11-04T05:39:25.112Z,1006.48
2018-11-04T05:40:25.113Z,1006.45
2018-11-04T05:41:25.089Z,1006.46
2018-11-04T05:42:25.088Z,1006.48
2018-11-04T05:43:25.066Z,1006.45
2018-11-04T05:44:25.057Z,1006.45
2018-11-04T05:45:25.059Z,1006.46
2018-11-04T05:46:25.034Z,1006.42
2018-11-04T05:47:25.022Z,1006.45
2018-11-04T05:48:25.014Z,1006.45
2018-11-04T05:49:25.001Z,1006.47
2018-11-04T05:50:25.031Z,1006.39
2018-11-04T05:51:24.979Z,1006.47
2018-11-04T05:52:24.968Z,1006.44
2018-11-04T05:53:24.961Z,1006.40
2018-11-04T05:54:24.946Z,1006.45
2018-11-04T05:55:24.937Z,1006.44
2018-11-04T05:56:24.955Z,1006.45
2018-11-04T05:57:24.914Z,1006.44
2018-11-04T05:58:24.904Z,1006.42
2018-11-04T05:59:24.894Z,1006.43
2018-11-04T06:00:24.882Z,1006.45
2018-11-04T06:01:24.874Z,1006.46
2018-11-04T06:02:24.874Z,1006.46
2018-11-04T06:03:24.850Z,1006.47
2018-11-04T06:04:24.871Z,1006.47
2018-11-04T06:05:24.829Z,1006.48
2018-11-04T06:06:24.817Z,1006.47
2018-11-04T06:07:24.813Z,1006.41
2018-11-04T06:08:24.795Z,1006.47
2018-11-04T06:09:24.791Z,1006.48
2018-11-04T06:10:24.805Z,1006.46
2018-11-04T06:11:24.767Z,1006.46
2018-11-04T06:12:24.753Z,1006.36
2018-11-04T06:13:24.744Z,1006.44
2018-11-04T06:14:24.732Z,1006.41
2018-11-04T06:15:24.720Z,1006.42
2018-11-04T06:16:24.724Z,1006.42
2018-11-04T06:17:24.729Z,1006.46
2018-11-04T06:18:24.692Z,1006.46
2018-11-04T06:19:24.848Z,1006.47
2018-11-04T06:20:24.666Z,1006.41
2018-11-04T06:21:24.654Z,1006.45
2018-11-04T06:22:24.644Z,1006.47
2018-11-04T06:23:24.649Z,1006.49
2018-11-04T06:24:24.621Z,1006.43
2018-11-04T06:25:24.612Z,1006.45
2018-11-04T06:26:24.599Z,1006.45
2018-11-04T06:27:24.588Z,1006.44
2018-11-04T06:28:24.615Z,1006.44
2018-11-04T06:29:24.568Z,1006.44
2018-11-04T06:30:24.557Z,1006.43
2018-11-04T06:31:24.548Z,1006.47
2018-11-04T06:32:24.534Z,1006.46
2018-11-04T06:33:24.528Z,1006.46
2018-11-04T06:34:24.581Z,1006.40
2018-11-04T06:35:24.504Z,1006.47
2018-11-04T06:36:24.493Z,1006.46
2018-11-04T06:37:24.482Z,1006.47
2018-11-04T06:38:24.472Z,1006.42
2018-11-04T06:39:24.475Z,1006.49
2018-11-04T06:40:24.450Z,1006.49
2018-11-04T06:41:24.440Z,1006.49
2018-11-04T06:42:24.429Z,1006.44
2018-11-04T06:43:24.418Z,1006.48
2018-11-04T06:44:24.418Z,1006.48
2018-11-04T06:45:24.401Z,1006.41
2018-11-04T06:46:24.400Z,1006.42
2018-11-04T06:47:24.449Z,1006.38
2018-11-04T06:48:24.365Z,1006.38
2018-11-04T06:49:24.357Z,1006.39
2018-11-04T06:50:24.358Z,1006.38
2018-11-04T06:51:24.333Z,1006.42
2018-11-04T06:52:24.326Z,1006.40
2018-11-04T06:53:24.312Z,1006.35
2018-11-04T06:54:24.301Z,1006.38
2018-11-04T06:55:24.305Z,1006.38
2018-11-04T06:56:24.280Z,1006.35
2018-11-04T06:57:24.272Z,1006.31
2018-11-04T06:58:24.259Z,1006.38
2018-11-04T06:59:24.248Z,1006.34
2018-11-04T07:00:24.252Z,1006.37
2018-11-04T07:01:24.227Z,1006.37
2018-11-04T07:02:24.225Z,1006.32
2018-11-04T07:03:24.207Z,1006.34
2018-11-04T07:04:24.193Z,1006.31
2018-11-04T07:05:24.183Z,1006.33
2018-11-04T07:06:24.213Z,1006.36
2018-11-04T07:07:24.163Z,1006.32
2018-11-04T07:08:24.150Z,1006.34
2018-11-04T07:09:24.141Z,1006.35
2018-11-04T07:10:24.132Z,1006.33
2018-11-04T07:11:24.122Z,1006.34
2018-11-04T07:12:24.124Z,1006.33
2018-11-04T07:13:24.097Z,1006.33
2018-11-04T07:14:24.087Z,1006.36
2018-11-04T07:15:24.077Z,1006.35
2018-11-04T07:16:24.068Z,1006.37
2018-11-04T07:17:24.069Z,1006.33
2018-11-04T07:18:24.047Z,1006.33
2018-11-04T07:19:24.033Z,1006.34
2018-11-04T07:20:24.029Z,1006.36
2018-11-04T07:21:24.013Z,1006.32
2018-11-04T07:22:24.041Z,1006.34
2018-11-04T07:23:23.995Z,1006.29
2018-11-04T07:24:23.980Z,1006.30
2018-11-04T07:25:23.987Z,1006.31
2018-11-04T07:26:23.958Z,1006.33
2018-11-04T07:27:23.947Z,1006.26
2018-11-04T07:28:23.949Z,1006.24
2018-11-04T07:29:23.925Z,1006.23
2018-11-04T07:30:23.912Z,1006.27
2018-11-04T07:31:23.907Z,1006.25
2018-11-04T07:32:23.906Z,1006.28
2018-11-04T07:33:23.915Z,1006.24
2018-11-04T07:34:23.868Z,1006.24
2018-11-04T07:35:23.859Z,1006.21
2018-11-04T07:36:23.848Z,1006.21
2018-11-04T07:37:23.838Z,1006.24
2018-11-04T07:38:23.826Z,1006.23
2018-11-04T07:39:23.852Z,1006.24
2018-11-04T07:40:23.804Z,1006.29
2018-11-04T07:41:23.792Z,1006.29
2018-11-04T07:42:23.783Z,1006.24
2018-11-04T07:43:23.772Z,1006.26
2018-11-04T07:44:23.881Z,1006.22
2018-11-04T07:45:23.781Z,1006.20
2018-11-04T07:46:23.737Z,1006.24
2018-11-04T07:47:23.728Z,1006.23
2018-11-04T07:48:23.718Z,1006.25
2018-11-04T07:49:23.705Z,1006.20
2018-11-04T07:50:23.706Z,1006.20
2018-11-04T07:51:23.700Z,1006.19
2018-11-04T07:52:23.672Z,1006.22
2018-11-04T07:53:23.664Z,1006.18
2018-11-04T07:54:23.680Z,1006.21
2018-11-04T07:55:23.640Z,1006.15
2018-11-04T07:56:23.628Z,1006.16
2018-11-04T07:57:23.616Z,1006.13
2018-11-04T07:58:23.609Z,1006.11
2018-11-04T07:59:23.598Z,1006.06
2018-11-04T08:00:23.598Z,1006.03
2018-11-04T08:01:23.574Z,1006.02
2018-11-04T08:02:23.562Z,1006.04
2018-11-04T08:03:23.564Z,1006.02
2018-11-04T08:04:23.540Z,1006.03
2018-11-04T08:05:23.544Z,1006.04
2018-11-04T08:06:23.520Z,1006.05
2018-11-04T08:07:23.508Z,1006.02
2018-11-04T08:08:23.502Z,1006.05
2018-11-04T08:09:23.485Z,1005.98
2018-11-04T08:10:23.491Z,1006.04
2018-11-04T08:11:23.481Z,1006.03
2018-11-04T08:12:23.453Z,1006.05
2018-11-04T08:13:23.449Z,1006.07
2018-11-04T08:14:23.430Z,1006.04
2018-11-04T08:15:23.446Z,1006.03
2018-11-04T08:16:23.409Z,1006.00
2018-11-04T08:17:23.397Z,1005.99
2018-11-04T08:18:23.387Z,1005.98
2018-11-04T08:19:23.376Z,1005.96
2018-11-04T08:20:23.368Z,1006.01
2018-11-04T08:21:23.447Z,1005.99
2018-11-04T08:22:23.343Z,1005.95
2018-11-04T08:23:23.335Z,1005.94
2018-11-04T08:24:23.319Z,1005.96
2018-11-04T08:25:23.310Z,1005.95
2018-11-04T08:26:23.314Z,1005.94
2018-11-04T08:27:23.323Z,1005.92
2018-11-04T08:28:23.278Z,1005.91
2018-11-04T08:29:23.266Z,1005.87
2018-11-04T08:30:23.256Z,1005.91
2018-11-04T08:31:23.244Z,1005.89
2018-11-04T08:32:23.266Z,1005.90
2018-11-04T08:33:23.224Z,1005.94
2018-11-04T08:34:23.210Z,1005.94
2018-11-04T08:35:23.200Z,1005.92
2018-11-04T08:36:23.189Z,1005.90
2018-11-04T08:37:23.177Z,1005.95
2018-11-04T08:38:23.180Z,1005.90
2018-11-04T08:39:23.158Z,1005.85
2018-11-04T08:40:23.237Z,1005.84
2018-11-04T08:41:23.135Z,1005.87
2018-11-04T08:42:23.123Z,1005.82
2018-11-04T08:43:23.126Z,1005.78
2018-11-04T08:44:23.130Z,1005.79
2018-11-04T08:45:23.089Z,1005.78
2018-11-04T08:46:23.081Z,1005.80
2018-11-04T08:47:23.069Z,1005.73
2018-11-04T08:48:23.058Z,1005.78
2018-11-04T08:49:23.047Z,1005.82
2018-11-04T08:50:23.049Z,1005.81
2018-11-04T08:51:23.029Z,1005.83
2018-11-04T08:52:23.032Z,1005.79
2018-11-04T08:53:23.004Z,1005.77
2018-11-04T08:54:23.006Z,1005.75
2018-11-04T08:55:22.991Z,1005.72
2018-11-04T08:56:22.972Z,1005.67
2018-11-04T08:57:22.962Z,1005.63
2018-11-04T08:58:22.949Z,1005.58
2018-11-04T08:59:22.969Z,1005.61
2018-11-04T09:00:22.927Z,1005.62
2018-11-04T09:01:22.923Z,1005.66
2018-11-04T09:02:22.909Z,1005.65
2018-11-04T09:03:22.897Z,1005.67
2018-11-04T09:04:22.885Z,1005.65
2018-11-04T09:05:22.884Z,1005.65
2018-11-04T09:06:22.884Z,1005.64
2018-11-04T09:07:22.855Z,1005.65
2018-11-04T09:08:22.841Z,1005.63
2018-11-04T09:09:22.830Z,1005.62
2018-11-04T09:10:22.820Z,1005.63
2018-11-04T09:11:22.822Z,1005.62
2018-11-04T09:12:22.800Z,1005.63
2018-11-04T09:13:22.789Z,1005.55
2018-11-04T09:14:22.926Z,1005.58
2018-11-04T09:15:22.766Z,1005.59
2018-11-04T09:16:22.767Z,1005.58
2018-11-04T09:17:22.744Z,1005.59
2018-11-04T09:18:22.732Z,1005.59
2018-11-04T09:19:22.722Z,1005.55
2018-11-04T09:20:22.713Z,1005.56
2018-11-04T09:21:22.714Z,1005.55
2018-11-04T09:22:22.779Z,1005.50
2018-11-04T09:23:22.732Z,1005.49
2018-11-04T09:24:22.667Z,1005.49
2018-11-04T09:25:22.659Z,1005.41
2018-11-04T09:26:22.687Z,1005.40
2018-11-04T09:27:22.636Z,1005.41
2018-11-04T09:28:22.624Z,1005.41
2018-11-04T09:29:22.638Z,1005.38
2018-11-04T09:30:22.609Z,1005.35
2018-11-04T09:31:22.592Z,1005.33
2018-11-04T09:32:22.594Z,1005.36
2018-11-04T09:33:22.570Z,1005.33
2018-11-04T09:34:22.559Z,1005.36
2018-11-04T09:35:22.685Z,1005.33
2018-11-04T09:36:22.786Z,1005.33
2018-11-04T09:37:22.555Z,1005.33
2018-11-04T09:38:22.517Z,1005.31
2018-11-04T09:39:22.504Z,1005.31
2018-11-04T09:40:22.495Z,1005.32
2018-11-04T09:41:22.484Z,1005.35
2018-11-04T09:42:22.473Z,1005.31
2018-11-04T09:43:22.476Z,1005.37
2018-11-04T09:44:22.450Z,1005.35
2018-11-04T09:45:22.440Z,1005.34
2018-11-04T09:46:22.429Z,1005.31
2018-11-04T09:47:22.419Z,1005.26
2018-11-04T09:48:22.434Z,1005.35
2018-11-04T09:49:22.397Z,1005.29
2018-11-04T09:50:22.385Z,1005.27
2018-11-04T09:51:22.376Z,1005.30
2018-11-04T09:52:22.365Z,1005.23
2018-11-04T09:53:22.354Z,1005.28
2018-11-04T09:54:22.355Z,1005.26
2018-11-04T09:55:22.331Z,1005.28
2018-11-04T09:56:22.347Z,1005.29
2018-11-04T09:57:22.311Z,1005.27
2018-11-04T09:58:22.300Z,1005.24
2018-11-04T09:59:22.309Z,1005.23
2018-11-04T10:00:22.279Z,1005.25
2018-11-04T10:01:22.266Z,1005.29
2018-11-04T10:02:22.257Z,1005.26
2018-11-04T10:03:22.262Z,1005.23
2018-11-04T10:04:22.233Z,1005.25
2018-11-04T10:05:22.224Z,1005.26
2018-11-04T10:06:22.212Z,1005.19
2018-11-04T10:07:22.204Z,1005.27
2018-11-04T10:08:22.207Z,1005.24
2018-11-04T10:09:22.181Z,1005.22
2018-11-04T10:10:22.186Z,1005.19
2018-11-04T10:11:22.159Z,1005.16
2018-11-04T10:12:22.150Z,1005.19
2018-11-04T10:13:22.170Z,1005.14
2018-11-04T10:14:22.136Z,1005.12
2018-11-04T10:15:22.128Z,1005.11
2018-11-04T10:16:22.169Z,1005.09
2018-11-04T10:17:22.097Z,1005.14
2018-11-04T10:18:22.081Z,1005.09
2018-11-04T10:19:22.388Z,1005.09
2018-11-04T10:20:22.406Z,1005.08
2018-11-04T10:21:22.050Z,1005.10
2018-11-04T10:22:22.038Z,1005.11
2018-11-04T10:23:22.027Z,1005.09
2018-11-04T10:24:22.016Z,1005.12
2018-11-04T10:25:22.008Z,1005.11
2018-11-04T10:26:22.010Z,1005.12
2018-11-04T10:27:21.984Z,1005.11
2018-11-04T10:28:21.975Z,1005.11
2018-11-04T10:29:21.962Z,1005.10
2018-11-04T10:30:22.037Z,1005.15
2018-11-04T10:31:21.952Z,1005.18
2018-11-04T10:32:21.938Z,1005.23
2018-11-04T10:33:21.919Z,1005.24
2018-11-04T10:34:21.912Z,1005.17
2018-11-04T10:35:21.895Z,1005.21
2018-11-04T10:36:21.906Z,1005.13
2018-11-04T10:37:22.033Z,1005.06
2018-11-04T10:38:21.861Z,1005.11
2018-11-04T10:39:21.851Z,1005.08
2018-11-04T10:40:21.843Z,1005.11
2018-11-04T10:41:21.843Z,1005.08
2018-11-04T10:42:21.886Z,1005.05
2018-11-04T10:43:21.807Z,1005.08
2018-11-04T10:44:21.798Z,1005.03
2018-11-04T10:45:21.787Z,1005.03
2018-11-04T10:46:21.789Z,1005.05
2018-11-04T10:47:21.762Z,1005.11
2018-11-04T10:48:21.755Z,1005.11
2018-11-04T10:49:21.833Z,1005.10
2018-11-04T10:50:21.732Z,1005.10
2018-11-04T10:51:21.733Z,1005.12
2018-11-04T10:52:21.707Z,1005.08
2018-11-04T10:53:21.698Z,1005.11
2018-11-04T10:54:21.687Z,1005.04
2018-11-04T10:55:21.676Z,1005.04
2018-11-04T10:56:21.692Z,1004.95
2018-11-04T10:57:21.654Z,1005.00
2018-11-04T10:58:21.643Z,1005.03
2018-11-04T10:59:21.632Z,1004.95
2018-11-04T11:00:21.621Z,1004.93
2018-11-04T11:01:21.610Z,1004.93
2018-11-04T11:02:21.613Z,1004.96
2018-11-04T11:03:21.602Z,1004.91
2018-11-04T11:04:21.589Z,1004.91
2018-11-04T11:05:21.567Z,1004.95
2018-11-04T11:06:21.557Z,1004.96
2018-11-04T11:07:21.558Z,1004.94
2018-11-04T11:08:21.539Z,1004.97
2018-11-04T11:09:21.522Z,1004.96
2018-11-04T11:10:21.526Z,1004.94
2018-11-04T11:11:21.502Z,1004.93
2018-11-04T11:12:21.507Z,1004.84
2018-11-04T11:13:21.480Z,1004.86
2018-11-04T11:14:21.479Z,1004.87
2018-11-04T11:15:21.457Z,1004.74
2018-11-04T11:16:21.446Z,1004.83
2018-11-04T11:17:21.450Z,1004.78
2018-11-04T11:18:21.424Z,1004.76
2018-11-04T11:19:21.427Z,1004.80
2018-11-04T11:20:21.401Z,1004.73
2018-11-04T11:21:21.394Z,1004.68
2018-11-04T11:22:21.391Z,1004.66
2018-11-04T11:23:21.375Z,1004.65
2018-11-04T11:24:21.371Z,1004.69
2018-11-04T11:25:21.358Z,1004.64
2018-11-04T11:26:21.337Z,1004.66
2018-11-04T11:27:21.326Z,1004.64
2018-11-04T11:28:21.315Z,1004.64
2018-11-04T11:29:21.317Z,1004.61
2018-11-04T11:30:21.337Z,1004.60
2018-11-04T11:31:21.282Z,1004.60
2018-11-04T11:32:21.271Z,1004.54
2018-11-04T11:33:21.293Z,1004.51
2018-11-04T11:34:21.248Z,1004.53
2018-11-04T11:35:21.235Z,1004.57
2018-11-04T11:36:21.228Z,1004.55
2018-11-04T11:37:21.240Z,1004.48
2018-11-04T11:38:21.205Z,1004.48
2018-11-04T11:39:21.204Z,1004.43
2018-11-04T11:40:21.214Z,1004.42
2018-11-04T11:41:21.173Z,1004.39
2018-11-04T11:42:21.175Z,1004.42
2018-11-04T11:43:21.150Z,1004.36
2018-11-04T11:44:21.138Z,1004.38
2018-11-04T11:45:21.129Z,1004.37
2018-11-04T11:46:21.132Z,1004.38
2018-11-04T11:47:21.107Z,1004.38
2018-11-04T11:48:21.096Z,1004.42
2018-11-04T11:49:21.084Z,1004.30
2018-11-04T11:50:21.073Z,1004.31
2018-11-04T11:51:21.094Z,1004.29
2018-11-04T11:52:21.056Z,1004.28
2018-11-04T11:53:21.051Z,1004.30
2018-11-04T11:54:21.032Z,1004.36
2018-11-04T11:55:21.020Z,1004.34
2018-11-04T11:56:21.007Z,1004.34
2018-11-04T11:57:21.010Z,1004.34
2018-11-04T11:58:20.998Z,1004.37
2018-11-04T11:59:21.003Z,1004.31
2018-11-04T12:00:20.964Z,1004.24
2018-11-04T12:01:20.952Z,1004.26
2018-11-04T12:02:21.118Z,1004.24
2018-11-04T12:03:20.933Z,1004.23
2018-11-04T12:04:20.917Z,1004.22
2018-11-04T12:05:20.915Z,1004.24